sensor_id;sensor_type;location;lat;lon;timestamp;pressure;altitude;pressure_sealevel;temperature;humidity
41515;BME280;27247;48.020;16.720;2023-11-19T00:01:18;100468.25;;;1.56;96.45
41515;BME280;27247;48.020;16.720;2023-11-19T00:05:29;100464.69;;;1.57;96.57
41515;BME280;27247;48.020;16.720;2023-11-19T00:09:40;100454.28;;;1.81;94.50
41515;BME280;27247;48.020;16.720;2023-11-19T00:13:50;100468.94;;;1.85;92.86
41515;BME280;27247;48.020;16.720;2023-11-19T00:18:01;100475.25;;;1.83;93.21
41515;BME280;27247;48.020;16.720;2023-11-19T00:22:14;100465.78;;;1.93;93.74
41515;BME280;27247;48.020;16.720;2023-11-19T00:26:25;100455.13;;;2.07;94.15
41515;BME280;27247;48.020;16.720;2023-11-19T00:30:35;100459.00;;;1.76;94.80
41515;BME280;27247;48.020;16.720;2023-11-19T00:34:45;100463.22;;;1.66;96.88
41515;BME280;27247;48.020;16.720;2023-11-19T00:38:57;100455.84;;;1.84;96.58
41515;BME280;27247;48.020;16.720;2023-11-19T00:43:08;100457.75;;;1.95;95.53
41515;BME280;27247;48.020;16.720;2023-11-19T00:47:18;100463.88;;;2.08;94.74
41515;BME280;27247;48.020;16.720;2023-11-19T00:51:31;100444.59;;;1.95;95.68
41515;BME280;27247;48.020;16.720;2023-11-19T00:55:42;100439.66;;;2.15;94.63
41515;BME280;27247;48.020;16.720;2023-11-19T00:59:52;100421.59;;;2.22;93.54
41515;BME280;27247;48.020;16.720;2023-11-19T01:04:02;100424.97;;;2.24;93.17
41515;BME280;27247;48.020;16.720;2023-11-19T01:08:13;100422.78;;;2.18;94.13
41515;BME280;27247;48.020;16.720;2023-11-19T01:12:23;100407.38;;;2.12;95.21
41515;BME280;27247;48.020;16.720;2023-11-19T01:16:33;100404.75;;;2.12;96.09
41515;BME280;27247;48.020;16.720;2023-11-19T01:20:43;100412.31;;;2.04;96.50
41515;BME280;27247;48.020;16.720;2023-11-19T01:24:54;100401.16;;;2.13;96.10
41515;BME280;27247;48.020;16.720;2023-11-19T01:29:04;100391.03;;;2.19;95.59
41515;BME280;27247;48.020;16.720;2023-11-19T01:33:14;100379.31;;;2.23;94.52
41515;BME280;27247;48.020;16.720;2023-11-19T01:37:25;100373.28;;;2.34;94.84
41515;BME280;27247;48.020;16.720;2023-11-19T01:41:35;100360.09;;;2.34;94.01
41515;BME280;27247;48.020;16.720;2023-11-19T01:45:46;100365.34;;;2.34;93.92
41515;BME280;27247;48.020;16.720;2023-11-19T01:49:57;100355.88;;;2.32;94.32
41515;BME280;27247;48.020;16.720;2023-11-19T01:54:08;100344.81;;;2.27;94.43
41515;BME280;27247;48.020;16.720;2023-11-19T01:58:19;100340.50;;;2.26;95.31
41515;BME280;27247;48.020;16.720;2023-11-19T02:02:29;100328.16;;;2.26;95.38
41515;BME280;27247;48.020;16.720;2023-11-19T02:06:41;100327.09;;;2.29;96.43
41515;BME280;27247;48.020;16.720;2023-11-19T02:10:52;100330.53;;;2.42;95.50
41515;BME280;27247;48.020;16.720;2023-11-19T02:15:05;100325.19;;;2.31;92.98
41515;BME280;27247;48.020;16.720;2023-11-19T02:19:19;100321.38;;;2.35;92.26
41515;BME280;27247;48.020;16.720;2023-11-19T02:23:30;100321.78;;;2.41;91.40
41515;BME280;27247;48.020;16.720;2023-11-19T02:27:45;100305.38;;;2.49;92.74
41515;BME280;27247;48.020;16.720;2023-11-19T02:31:57;100292.84;;;2.64;93.43
41515;BME280;27247;48.020;16.720;2023-11-19T02:36:08;100274.81;;;2.46;94.88
41515;BME280;27247;48.020;16.720;2023-11-19T02:40:18;100261.50;;;2.48;94.61
41515;BME280;27247;48.020;16.720;2023-11-19T02:44:29;100249.41;;;2.56;94.72
41515;BME280;27247;48.020;16.720;2023-11-19T02:48:40;100242.22;;;2.59;94.96
41515;BME280;27247;48.020;16.720;2023-11-19T02:52:54;100239.88;;;2.67;94.25
41515;BME280;27247;48.020;16.720;2023-11-19T02:57:06;100229.09;;;2.81;94.15
41515;BME280;27247;48.020;16.720;2023-11-19T03:01:23;100237.28;;;2.89;93.94
41515;BME280;27247;48.020;16.720;2023-11-19T03:05:39;100231.41;;;2.85;93.11
41515;BME280;27247;48.020;16.720;2023-11-19T03:09:50;100228.88;;;2.84;92.14
41515;BME280;27247;48.020;16.720;2023-11-19T03:14:01;100220.97;;;2.84;91.67
41515;BME280;27247;48.020;16.720;2023-11-19T03:18:13;100222.38;;;2.77;91.45
41515;BME280;27247;48.020;16.720;2023-11-19T03:22:23;100211.94;;;2.75;91.84
41515;BME280;27247;48.020;16.720;2023-11-19T03:26:34;100211.81;;;2.66;90.80
41515;BME280;27247;48.020;16.720;2023-11-19T03:30:45;100206.06;;;2.72;89.90
41515;BME280;27247;48.020;16.720;2023-11-19T03:34:55;100192.41;;;2.89;90.84
41515;BME280;27247;48.020;16.720;2023-11-19T03:39:05;100172.72;;;2.82;91.40
41515;BME280;27247;48.020;16.720;2023-11-19T03:43:16;100168.78;;;2.87;91.64
41515;BME280;27247;48.020;16.720;2023-11-19T03:47:27;100192.41;;;2.89;92.49
41515;BME280;27247;48.020;16.720;2023-11-19T03:51:37;100173.22;;;2.98;93.15
41515;BME280;27247;48.020;16.720;2023-11-19T03:55:47;100180.91;;;3.01;93.55
41515;BME280;27247;48.020;16.720;2023-11-19T04:00:00;100176.59;;;3.11;94.03
41515;BME280;27247;48.020;16.720;2023-11-19T04:04:13;100174.09;;;3.21;93.87
41515;BME280;27247;48.020;16.720;2023-11-19T04:08:24;100150.56;;;3.29;94.07
41515;BME280;27247;48.020;16.720;2023-11-19T04:12:35;100162.69;;;3.32;95.52
41515;BME280;27247;48.020;16.720;2023-11-19T04:16:46;100160.19;;;3.30;96.41
41515;BME280;27247;48.020;16.720;2023-11-19T04:20:56;100156.44;;;3.33;98.04
41515;BME280;27247;48.020;16.720;2023-11-19T04:25:07;100143.97;;;3.24;99.87
41515;BME280;27247;48.020;16.720;2023-11-19T04:29:17;100113.72;;;3.05;100.00
41515;BME280;27247;48.020;16.720;2023-11-19T04:33:28;100100.66;;;3.15;100.00
41515;BME280;27247;48.020;16.720;2023-11-19T04:37:38;100098.47;;;3.09;100.00
41515;BME280;27247;48.020;16.720;2023-11-19T04:41:49;100109.75;;;2.88;100.00
41515;BME280;27247;48.020;16.720;2023-11-19T04:46:03;100104.00;;;2.83;100.00
41515;BME280;27247;48.020;16.720;2023-11-19T04:50:14;100101.38;;;2.83;100.00
41515;BME280;27247;48.020;16.720;2023-11-19T04:54:24;100104.09;;;2.48;100.00
41515;BME280;27247;48.020;16.720;2023-11-19T04:58:34;100094.63;;;2.57;100.00
41515;BME280;27247;48.020;16.720;2023-11-19T05:02:47;100104.06;;;2.37;100.00
41515;BME280;27247;48.020;16.720;2023-11-19T05:06:57;100095.78;;;2.19;100.00
41515;BME280;27247;48.020;16.720;2023-11-19T05:11:07;100091.44;;;2.18;100.00
41515;BME280;27247;48.020;16.720;2023-11-19T05:15:20;100082.22;;;2.13;100.00
41515;BME280;27247;48.020;16.720;2023-11-19T05:19:30;100062.84;;;2.36;100.00
41515;BME280;27247;48.020;16.720;2023-11-19T05:23:40;100063.56;;;2.49;100.00
41515;BME280;27247;48.020;16.720;2023-11-19T05:27:52;100060.47;;;2.55;100.00
41515;BME280;27247;48.020;16.720;2023-11-19T05:32:02;100046.78;;;2.62;100.00
41515;BME280;27247;48.020;16.720;2023-11-19T05:36:13;100046.31;;;2.68;100.00
41515;BME280;27247;48.020;16.720;2023-11-19T05:40:23;100053.41;;;2.67;100.00
41515;BME280;27247;48.020;16.720;2023-11-19T05:44:33;100036.38;;;2.71;100.00
41515;BME280;27247;48.020;16.720;2023-11-19T05:48:44;100032.28;;;2.67;100.00
41515;BME280;27247;48.020;16.720;2023-11-19T05:52:56;100026.66;;;2.72;100.00
41515;BME280;27247;48.020;16.720;2023-11-19T05:57:07;100026.88;;;2.69;100.00
41515;BME280;27247;48.020;16.720;2023-11-19T06:01:20;100016.34;;;2.69;100.00
41515;BME280;27247;48.020;16.720;2023-11-19T06:05:31;100000.16;;;2.73;100.00
41515;BME280;27247;48.020;16.720;2023-11-19T06:09:41;100001.56;;;2.77;100.00
41515;BME280;27247;48.020;16.720;2023-11-19T06:13:52;99988.41;;;2.66;100.00
41515;BME280;27247;48.020;16.720;2023-11-19T06:18:03;99996.53;;;2.74;100.00
41515;BME280;27247;48.020;16.720;2023-11-19T06:22:14;99982.97;;;2.79;100.00
41515;BME280;27247;48.020;16.720;2023-11-19T06:26:24;99995.47;;;2.66;100.00
41515;BME280;27247;48.020;16.720;2023-11-19T06:30:34;100014.91;;;2.65;100.00
41515;BME280;27247;48.020;16.720;2023-11-19T06:34:46;99997.50;;;2.62;100.00
41515;BME280;27247;48.020;16.720;2023-11-19T06:38:56;100017.41;;;2.55;100.00
41515;BME280;27247;48.020;16.720;2023-11-19T06:43:06;100006.75;;;2.56;100.00
41515;BME280;27247;48.020;16.720;2023-11-19T06:47:19;99995.97;;;2.60;100.00
41515;BME280;27247;48.020;16.720;2023-11-19T06:51:29;99999.44;;;2.49;100.00
41515;BME280;27247;48.020;16.720;2023-11-19T06:55:40;99988.06;;;2.48;100.00
41515;BME280;27247;48.020;16.720;2023-11-19T06:59:50;99989.59;;;2.51;100.00
41515;BME280;27247;48.020;16.720;2023-11-19T07:04:01;99995.25;;;2.58;100.00
41515;BME280;27247;48.020;16.720;2023-11-19T07:08:18;99986.50;;;2.57;100.00
41515;BME280;27247;48.020;16.720;2023-11-19T07:12:28;99986.13;;;2.50;100.00
41515;BME280;27247;48.020;16.720;2023-11-19T07:16:38;99970.66;;;2.57;100.00
41515;BME280;27247;48.020;16.720;2023-11-19T07:20:49;99957.59;;;2.55;100.00
41515;BME280;27247;48.020;16.720;2023-11-19T07:24:59;99948.97;;;2.53;100.00
41515;BME280;27247;48.020;16.720;2023-11-19T07:29:10;99936.75;;;2.52;100.00
41515;BME280;27247;48.020;16.720;2023-11-19T07:33:20;99950.88;;;2.63;100.00
41515;BME280;27247;48.020;16.720;2023-11-19T07:37:30;99923.69;;;2.51;100.00
41515;BME280;27247;48.020;16.720;2023-11-19T07:41:41;99922.38;;;2.45;100.00
41515;BME280;27247;48.020;16.720;2023-11-19T07:45:51;99933.88;;;2.44;100.00
41515;BME280;27247;48.020;16.720;2023-11-19T07:50:02;99925.34;;;2.52;100.00
41515;BME280;27247;48.020;16.720;2023-11-19T07:54:12;99920.44;;;2.47;100.00
41515;BME280;27247;48.020;16.720;2023-11-19T07:58:24;99925.72;;;2.47;100.00
41515;BME280;27247;48.020;16.720;2023-11-19T08:02:34;99938.31;;;2.44;100.00
41515;BME280;27247;48.020;16.720;2023-11-19T08:06:44;99922.13;;;2.48;100.00
41515;BME280;27247;48.020;16.720;2023-11-19T08:10:56;99899.81;;;2.52;100.00
41515;BME280;27247;48.020;16.720;2023-11-19T08:15:07;99909.16;;;2.56;100.00
41515;BME280;27247;48.020;16.720;2023-11-19T08:19:17;99923.75;;;2.72;100.00
41515;BME280;27247;48.020;16.720;2023-11-19T08:23:28;99916.09;;;2.69;100.00
41515;BME280;27247;48.020;16.720;2023-11-19T08:27:38;99910.53;;;2.83;100.00
41515;BME280;27247;48.020;16.720;2023-11-19T08:31:49;99918.66;;;2.91;100.00
41515;BME280;27247;48.020;16.720;2023-11-19T08:35:59;99925.41;;;2.84;100.00
41515;BME280;27247;48.020;16.720;2023-11-19T08:40:11;99920.31;;;3.03;100.00
41515;BME280;27247;48.020;16.720;2023-11-19T08:44:22;99910.13;;;2.99;100.00
41515;BME280;27247;48.020;16.720;2023-11-19T08:48:32;99925.19;;;3.19;100.00
41515;BME280;27247;48.020;16.720;2023-11-19T08:52:42;99913.53;;;3.22;100.00
41515;BME280;27247;48.020;16.720;2023-11-19T08:56:53;99914.69;;;3.29;100.00
41515;BME280;27247;48.020;16.720;2023-11-19T09:01:03;99910.06;;;3.21;100.00
41515;BME280;27247;48.020;16.720;2023-11-19T09:05:14;99907.25;;;3.34;100.00
41515;BME280;27247;48.020;16.720;2023-11-19T09:09:24;99899.75;;;3.39;100.00
41515;BME280;27247;48.020;16.720;2023-11-19T09:13:35;99915.28;;;3.32;100.00
41515;BME280;27247;48.020;16.720;2023-11-19T09:17:47;99916.41;;;3.50;100.00
41515;BME280;27247;48.020;16.720;2023-11-19T09:21:57;99901.38;;;3.51;100.00
41515;BME280;27247;48.020;16.720;2023-11-19T09:26:09;99889.38;;;3.68;100.00
41515;BME280;27247;48.020;16.720;2023-11-19T09:30:22;99900.84;;;3.78;100.00
41515;BME280;27247;48.020;16.720;2023-11-19T09:34:33;99870.97;;;3.87;100.00
41515;BME280;27247;48.020;16.720;2023-11-19T09:38:44;99860.22;;;3.79;100.00
41515;BME280;27247;48.020;16.720;2023-11-19T09:42:56;99839.16;;;3.98;100.00
41515;BME280;27247;48.020;16.720;2023-11-19T09:47:07;99835.66;;;4.19;100.00
41515;BME280;27247;48.020;16.720;2023-11-19T09:51:18;99832.66;;;4.02;100.00
41515;BME280;27247;48.020;16.720;2023-11-19T09:55:28;99837.59;;;4.16;100.00
41515;BME280;27247;48.020;16.720;2023-11-19T09:59:40;99828.91;;;4.05;100.00
41515;BME280;27247;48.020;16.720;2023-11-19T10:03:52;99821.13;;;4.13;100.00
41515;BME280;27247;48.020;16.720;2023-11-19T10:08:05;99813.88;;;4.05;100.00
41515;BME280;27247;48.020;16.720;2023-11-19T10:12:16;99826.53;;;4.02;100.00
41515;BME280;27247;48.020;16.720;2023-11-19T10:16:30;99831.38;;;3.97;100.00
41515;BME280;27247;48.020;16.720;2023-11-19T10:20:41;99823.72;;;3.63;100.00
41515;BME280;27247;48.020;16.720;2023-11-19T10:24:53;99816.75;;;3.62;100.00
41515;BME280;27247;48.020;16.720;2023-11-19T10:29:04;99817.28;;;3.56;100.00
41515;BME280;27247;48.020;16.720;2023-11-19T10:33:14;99800.72;;;3.54;100.00
41515;BME280;27247;48.020;16.720;2023-11-19T10:37:29;99803.81;;;3.59;100.00
41515;BME280;27247;48.020;16.720;2023-11-19T10:41:45;99820.78;;;3.57;100.00
41515;BME280;27247;48.020;16.720;2023-11-19T10:46:09;99824.19;;;3.78;100.00
41515;BME280;27247;48.020;16.720;2023-11-19T10:50:20;99815.97;;;3.71;100.00
41515;BME280;27247;48.020;16.720;2023-11-19T10:54:32;99819.78;;;3.88;100.00
41515;BME280;27247;48.020;16.720;2023-11-19T10:58:45;99795.16;;;3.88;100.00
41515;BME280;27247;48.020;16.720;2023-11-19T11:03:00;99778.78;;;3.94;100.00
41515;BME280;27247;48.020;16.720;2023-11-19T11:07:12;99775.69;;;3.89;100.00
41515;BME280;27247;48.020;16.720;2023-11-19T11:11:22;99769.59;;;3.98;100.00
41515;BME280;27247;48.020;16.720;2023-11-19T11:15:34;99756.34;;;3.88;100.00
41515;BME280;27247;48.020;16.720;2023-11-19T11:19:45;99750.53;;;3.94;100.00
41515;BME280;27247;48.020;16.720;2023-11-19T11:24:12;99748.72;;;3.95;100.00
41515;BME280;27247;48.020;16.720;2023-11-19T11:32:46;99735.53;;;4.04;100.00
41515;BME280;27247;48.020;16.720;2023-11-19T11:37:15;99744.06;;;4.18;100.00
41515;BME280;27247;48.020;16.720;2023-11-19T11:41:30;99731.97;;;4.25;100.00
41515;BME280;27247;48.020;16.720;2023-11-19T11:45:41;99735.84;;;4.21;100.00
41515;BME280;27247;48.020;16.720;2023-11-19T11:49:53;99733.91;;;4.23;100.00
41515;BME280;27247;48.020;16.720;2023-11-19T11:54:04;99734.88;;;4.22;100.00
41515;BME280;27247;48.020;16.720;2023-11-19T11:58:27;99734.75;;;4.23;100.00
41515;BME280;27247;48.020;16.720;2023-11-19T12:02:37;99763.00;;;4.23;100.00
41515;BME280;27247;48.020;16.720;2023-11-19T12:07:03;99735.16;;;4.28;100.00
41515;BME280;27247;48.020;16.720;2023-11-19T12:11:14;99750.91;;;4.30;100.00
41515;BME280;27247;48.020;16.720;2023-11-19T12:15:26;99731.56;;;4.39;100.00
41515;BME280;27247;48.020;16.720;2023-11-19T12:19:41;99735.03;;;4.30;100.00
41515;BME280;27247;48.020;16.720;2023-11-19T12:23:53;99715.69;;;4.29;100.00
41515;BME280;27247;48.020;16.720;2023-11-19T12:28:04;99708.44;;;4.31;100.00
41515;BME280;27247;48.020;16.720;2023-11-19T12:32:14;99705.09;;;4.29;100.00
41515;BME280;27247;48.020;16.720;2023-11-19T12:36:25;99702.44;;;4.29;100.00
41515;BME280;27247;48.020;16.720;2023-11-19T12:40:35;99698.41;;;4.44;100.00
41515;BME280;27247;48.020;16.720;2023-11-19T12:44:54;99693.25;;;4.43;100.00
41515;BME280;27247;48.020;16.720;2023-11-19T12:49:06;99679.75;;;4.36;100.00
41515;BME280;27247;48.020;16.720;2023-11-19T12:53:16;99688.81;;;4.43;100.00
41515;BME280;27247;48.020;16.720;2023-11-19T12:57:42;99683.38;;;4.45;100.00
41515;BME280;27247;48.020;16.720;2023-11-19T13:01:56;99692.69;;;4.59;100.00
41515;BME280;27247;48.020;16.720;2023-11-19T13:06:12;99690.06;;;4.59;100.00
41515;BME280;27247;48.020;16.720;2023-11-19T13:10:22;99696.72;;;4.63;100.00
41515;BME280;27247;48.020;16.720;2023-11-19T13:14:36;99681.53;;;4.65;100.00
41515;BME280;27247;48.020;16.720;2023-11-19T13:18:52;99702.28;;;4.69;100.00
41515;BME280;27247;48.020;16.720;2023-11-19T13:23:04;99686.81;;;4.74;100.00
41515;BME280;27247;48.020;16.720;2023-11-19T13:27:14;99681.25;;;4.68;100.00
41515;BME280;27247;48.020;16.720;2023-11-19T13:31:25;99679.31;;;4.70;100.00
41515;BME280;27247;48.020;16.720;2023-11-19T13:35:35;99685.97;;;4.74;100.00
41515;BME280;27247;48.020;16.720;2023-11-19T13:39:46;99671.38;;;4.70;100.00
41515;BME280;27247;48.020;16.720;2023-11-19T13:43:57;99677.75;;;4.77;100.00
41515;BME280;27247;48.020;16.720;2023-11-19T13:48:07;99677.22;;;4.73;100.00
41515;BME280;27247;48.020;16.720;2023-11-19T13:52:17;99669.81;;;4.77;100.00
41515;BME280;27247;48.020;16.720;2023-11-19T13:56:28;99665.31;;;4.97;100.00
41515;BME280;27247;48.020;16.720;2023-11-19T14:00:38;99643.56;;;5.40;100.00
41515;BME280;27247;48.020;16.720;2023-11-19T14:04:48;99658.47;;;5.68;100.00
41515;BME280;27247;48.020;16.720;2023-11-19T14:08:59;99645.91;;;5.88;100.00
41515;BME280;27247;48.020;16.720;2023-11-19T14:13:09;99637.59;;;6.01;100.00
41515;BME280;27247;48.020;16.720;2023-11-19T14:17:20;99645.25;;;6.04;100.00
41515;BME280;27247;48.020;16.720;2023-11-19T14:21:30;99649.50;;;5.97;100.00
41515;BME280;27247;48.020;16.720;2023-11-19T14:25:40;99643.91;;;5.72;100.00
41515;BME280;27247;48.020;16.720;2023-11-19T14:29:51;99633.75;;;5.68;100.00
41515;BME280;27247;48.020;16.720;2023-11-19T14:34:02;99629.19;;;5.42;100.00
41515;BME280;27247;48.020;16.720;2023-11-19T14:38:12;99639.28;;;5.29;100.00
41515;BME280;27247;48.020;16.720;2023-11-19T14:42:23;99657.00;;;5.19;100.00
41515;BME280;27247;48.020;16.720;2023-11-19T14:46:33;99648.13;;;5.10;100.00
41515;BME280;27247;48.020;16.720;2023-11-19T14:50:43;99659.28;;;5.04;100.00
41515;BME280;27247;48.020;16.720;2023-11-19T14:54:57;99663.50;;;4.97;100.00
41515;BME280;27247;48.020;16.720;2023-11-19T14:59:07;99666.47;;;4.85;100.00
41515;BME280;27247;48.020;16.720;2023-11-19T15:03:17;99669.66;;;4.88;100.00
41515;BME280;27247;48.020;16.720;2023-11-19T15:07:29;99677.88;;;4.85;100.00
41515;BME280;27247;48.020;16.720;2023-11-19T15:11:39;99683.88;;;4.87;100.00
41515;BME280;27247;48.020;16.720;2023-11-19T15:15:49;99661.59;;;4.80;100.00
41515;BME280;27247;48.020;16.720;2023-11-19T15:20:00;99627.22;;;4.70;100.00
41515;BME280;27247;48.020;16.720;2023-11-19T15:24:11;99635.47;;;4.48;100.00
41515;BME280;27247;48.020;16.720;2023-11-19T15:28:22;99648.13;;;4.54;100.00
41515;BME280;27247;48.020;16.720;2023-11-19T15:32:32;99690.06;;;4.59;100.00
41515;BME280;27247;48.020;16.720;2023-11-19T15:36:42;99671.41;;;4.51;100.00
41515;BME280;27247;48.020;16.720;2023-11-19T15:40:53;99689.22;;;4.39;100.00
41515;BME280;27247;48.020;16.720;2023-11-19T15:45:03;99654.84;;;4.39;100.00
41515;BME280;27247;48.020;16.720;2023-11-19T15:49:15;99657.34;;;4.40;100.00
41515;BME280;27247;48.020;16.720;2023-11-19T15:53:26;99656.09;;;4.35;100.00
41515;BME280;27247;48.020;16.720;2023-11-19T15:57:36;99674.19;;;4.39;100.00
41515;BME280;27247;48.020;16.720;2023-11-19T16:01:47;99664.03;;;4.44;100.00
41515;BME280;27247;48.020;16.720;2023-11-19T16:05:57;99654.16;;;4.37;100.00
41515;BME280;27247;48.020;16.720;2023-11-19T16:10:08;99638.16;;;4.29;100.00
41515;BME280;27247;48.020;16.720;2023-11-19T16:14:19;99641.03;;;4.16;100.00
41515;BME280;27247;48.020;16.720;2023-11-19T16:18:29;99663.31;;;4.13;100.00
41515;BME280;27247;48.020;16.720;2023-11-19T16:22:40;99661.63;;;3.93;100.00
41515;BME280;27247;48.020;16.720;2023-11-19T16:26:54;99644.53;;;3.97;100.00
41515;BME280;27247;48.020;16.720;2023-11-19T16:31:06;99641.47;;;4.02;100.00
41515;BME280;27247;48.020;16.720;2023-11-19T16:35:16;99627.81;;;3.97;100.00
41515;BME280;27247;48.020;16.720;2023-11-19T16:39:27;99629.06;;;3.83;100.00
41515;BME280;27247;48.020;16.720;2023-11-19T16:43:38;99638.53;;;3.76;100.00
41515;BME280;27247;48.020;16.720;2023-11-19T16:47:48;99629.47;;;3.69;100.00
41515;BME280;27247;48.020;16.720;2023-11-19T16:51:59;99634.03;;;3.57;100.00
41515;BME280;27247;48.020;16.720;2023-11-19T16:56:09;99630.97;;;3.52;100.00
41515;BME280;27247;48.020;16.720;2023-11-19T17:00:20;99631.25;;;3.49;100.00
41515;BME280;27247;48.020;16.720;2023-11-19T17:04:31;99622.63;;;3.57;100.00
41515;BME280;27247;48.020;16.720;2023-11-19T17:08:41;99614.56;;;3.58;100.00
41515;BME280;27247;48.020;16.720;2023-11-19T17:12:52;99608.88;;;3.53;100.00
41515;BME280;27247;48.020;16.720;2023-11-19T17:17:03;99609.56;;;3.55;100.00
41515;BME280;27247;48.020;16.720;2023-11-19T17:21:13;99611.06;;;3.48;100.00
41515;BME280;27247;48.020;16.720;2023-11-19T17:25:24;99611.91;;;3.39;100.00
41515;BME280;27247;48.020;16.720;2023-11-19T17:29:34;99610.50;;;3.35;100.00
41515;BME280;27247;48.020;16.720;2023-11-19T17:33:44;99616.03;;;3.32;100.00
41515;BME280;27247;48.020;16.720;2023-11-19T17:37:55;99618.69;;;3.32;100.00
41515;BME280;27247;48.020;16.720;2023-11-19T17:42:05;99613.09;;;3.25;100.00
41515;BME280;27247;48.020;16.720;2023-11-19T17:46:16;99613.69;;;3.29;100.00
41515;BME280;27247;48.020;16.720;2023-11-19T17:50:27;99605.47;;;3.22;100.00
41515;BME280;27247;48.020;16.720;2023-11-19T17:54:39;99603.50;;;3.14;100.00
41515;BME280;27247;48.020;16.720;2023-11-19T17:58:49;99594.41;;;3.07;100.00
41515;BME280;27247;48.020;16.720;2023-11-19T18:03:00;99593.28;;;3.00;100.00
41515;BME280;27247;48.020;16.720;2023-11-19T18:07:10;99614.91;;;2.94;100.00
41515;BME280;27247;48.020;16.720;2023-11-19T18:11:21;99607.03;;;3.04;100.00
41515;BME280;27247;48.020;16.720;2023-11-19T18:15:32;99607.03;;;3.04;100.00
41515;BME280;27247;48.020;16.720;2023-11-19T18:19:44;99612.72;;;2.99;100.00
41515;BME280;27247;48.020;16.720;2023-11-19T18:23:54;99624.25;;;2.98;100.00
41515;BME280;27247;48.020;16.720;2023-11-19T18:28:05;99625.72;;;2.91;100.00
41515;BME280;27247;48.020;16.720;2023-11-19T18:32:16;99640.16;;;2.87;100.00
41515;BME280;27247;48.020;16.720;2023-11-19T18:36:34;99638.44;;;2.76;100.00
41515;BME280;27247;48.020;16.720;2023-11-19T18:40:45;99639.47;;;2.64;100.00
41515;BME280;27247;48.020;16.720;2023-11-19T18:44:57;99626.50;;;2.51;100.00
41515;BME280;27247;48.020;16.720;2023-11-19T18:49:08;99628.38;;;2.40;100.00
41515;BME280;27247;48.020;16.720;2023-11-19T18:53:19;99638.00;;;2.30;100.00
41515;BME280;27247;48.020;16.720;2023-11-19T18:57:31;99625.22;;;2.25;100.00
41515;BME280;27247;48.020;16.720;2023-11-19T19:01:44;99617.56;;;2.22;100.00
41515;BME280;27247;48.020;16.720;2023-11-19T19:05:55;99619.81;;;2.27;100.00
41515;BME280;27247;48.020;16.720;2023-11-19T19:10:07;99623.47;;;2.35;100.00
41515;BME280;27247;48.020;16.720;2023-11-19T19:14:18;99631.59;;;2.43;100.00
41515;BME280;27247;48.020;16.720;2023-11-19T19:18:29;99640.06;;;2.47;100.00
41515;BME280;27247;48.020;16.720;2023-11-19T19:22:40;99656.66;;;2.59;100.00
41515;BME280;27247;48.020;16.720;2023-11-19T19:26:53;99646.44;;;2.65;100.00
41515;BME280;27247;48.020;16.720;2023-11-19T19:31:05;99670.16;;;2.65;100.00
41515;BME280;27247;48.020;16.720;2023-11-19T19:35:15;99658.25;;;2.71;100.00
41515;BME280;27247;48.020;16.720;2023-11-19T19:39:27;99668.38;;;2.66;100.00
41515;BME280;27247;48.020;16.720;2023-11-19T19:43:39;99699.00;;;2.78;100.00
41515;BME280;27247;48.020;16.720;2023-11-19T19:47:50;99699.25;;;2.75;100.00
41515;BME280;27247;48.020;16.720;2023-11-19T19:52:00;99700.66;;;2.79;100.00
41515;BME280;27247;48.020;16.720;2023-11-19T19:56:11;99687.09;;;2.83;100.00
41515;BME280;27247;48.020;16.720;2023-11-19T20:00:21;99697.69;;;2.93;100.00
41515;BME280;27247;48.020;16.720;2023-11-19T20:04:32;99691.56;;;2.93;100.00
41515;BME280;27247;48.020;16.720;2023-11-19T20:08:43;99680.31;;;2.91;100.00
41515;BME280;27247;48.020;16.720;2023-11-19T20:12:53;99658.63;;;2.87;100.00
41515;BME280;27247;48.020;16.720;2023-11-19T20:17:03;99657.34;;;2.81;100.00
41515;BME280;27247;48.020;16.720;2023-11-19T20:21:14;99661.78;;;2.81;100.00
41515;BME280;27247;48.020;16.720;2023-11-19T20:25:24;99660.50;;;2.75;100.00
41515;BME280;27247;48.020;16.720;2023-11-19T20:29:34;99642.25;;;2.63;100.00
41515;BME280;27247;48.020;16.720;2023-11-19T20:33:45;99659.31;;;2.59;100.00
41515;BME280;27247;48.020;16.720;2023-11-19T20:37:55;99659.44;;;2.57;100.00
41515;BME280;27247;48.020;16.720;2023-11-19T20:42:05;99659.31;;;2.59;100.00
41515;BME280;27247;48.020;16.720;2023-11-19T20:46:16;99642.63;;;2.58;100.00
41515;BME280;27247;48.020;16.720;2023-11-19T20:50:26;99625.97;;;2.58;100.00
41515;BME280;27247;48.020;16.720;2023-11-19T20:54:37;99626.94;;;2.56;100.00
41515;BME280;27247;48.020;16.720;2023-11-19T20:58:48;99616.66;;;2.53;100.00
41515;BME280;27247;48.020;16.720;2023-11-19T21:02:58;99642.31;;;2.51;100.00
41515;BME280;27247;48.020;16.720;2023-11-19T21:07:09;99629.63;;;2.66;100.00
41515;BME280;27247;48.020;16.720;2023-11-19T21:11:19;99652.81;;;2.63;100.00
41515;BME280;27247;48.020;16.720;2023-11-19T21:15:30;99660.91;;;2.71;100.00
41515;BME280;27247;48.020;16.720;2023-11-19T21:19:40;99652.34;;;2.58;100.00
41515;BME280;27247;48.020;16.720;2023-11-19T21:23:52;99650.81;;;2.55;100.00
41515;BME280;27247;48.020;16.720;2023-11-19T21:28:02;99644.13;;;2.51;100.00
41515;BME280;27247;48.020;16.720;2023-11-19T21:32:13;99647.59;;;2.51;100.00
41515;BME280;27247;48.020;16.720;2023-11-19T21:36:23;99680.06;;;2.52;100.00
41515;BME280;27247;48.020;16.720;2023-11-19T21:40:34;99657.13;;;2.64;100.00
41515;BME280;27247;48.020;16.720;2023-11-19T21:44:45;99647.00;;;2.69;100.00
41515;BME280;27247;48.020;16.720;2023-11-19T21:48:55;99643.78;;;2.65;100.00
41515;BME280;27247;48.020;16.720;2023-11-19T21:53:05;99646.94;;;2.59;100.00
41515;BME280;27247;48.020;16.720;2023-11-19T21:57:16;99658.97;;;2.52;100.00